MST,Max TemperatureF,Mean TemperatureF,Min TemperatureF,Max Dew PointF,MeanDew PointF,Min DewpointF,Max Humidity, Mean Humidity, Min Humidity, Max Sea Level PressureIn, Mean Sea Level PressureIn, Min Sea Level PressureIn, Max VisibilityMiles, Mean VisibilityMiles, Min VisibilityMiles, Max Wind SpeedMPH, Mean Wind SpeedMPH, Max Gust SpeedMPH,PrecipitationIn, CloudCover, Events, WindDirDegrees
2013-12-1,50,38,25,36,30,23,92,69,46,30.09,29.82,29.56,10,10,6,16,7,19,0.09,6,Rain,217
2013-12-2,37,28,18,35,25,14,96,90,84,29.83,29.59,29.47,10,5,0,22,11,29,T,7,Fog-Snow,22
2013-12-3,18,12,6,15,6,1,92,84,76,30.12,29.93,29.73,7,2,0,24,15,29,0.08,8,Snow,13
2013-12-4,8,2,-5,2,-2,-10,83,77,71,30.24,30.06,29.93,10,3,1,30,20,37,T,7,Snow,316
2013-12-5,-4,-10,-17,-11,-17,-23,79,72,64,30.54,30.37,30.06,10,10,7,28,17,32,0.00,0,,288
2013-12-6,-9,-14,-20,-17,-22,-26,78,71,64,30.73,30.65,30.55,10,10,10,21,12,23,0.00,0,,277
2013-12-7,-12,-19,-26,-19,-26,-30,82,74,66,30.71,30.58,30.35,10,10,7,17,8,21,0.00,1,,250
2013-12-8,-5,-10,-16,-14,-17,-22,79,72,64,30.30,30.18,30.03,10,9,3,25,12,29,T,3,Snow,251
2013-12-9,18,1,-16,13,0,-20,84,74,63,30.21,29.86,29.56,10,4,0,40,20,53,0.01,5,Fog-Snow,283
2013-12-10,19,3,-14,13,3,-18,88,74,59,30.49,30.06,29.80,10,6,0,24,14,33,T,5,Snow,298
2013-12-11,20,1,-18,11,-2,-23,81,58,35,30.52,30.26,30.06,10,10,10,20,12,24,T,1,,239
2013-12-12,32,22,12,22,16,9,92,78,63,30.19,30.08,29.92,10,9,6,17,10,20,T,4,,263
2013-12-13,13,7,1,9,1,-4,92,86,79,30.31,30.08,29.89,10,4,1,17,9,23,T,8,Snow,99
2013-12-14,17,7,-4,11,5,-7,86,77,67,30.28,30.17,30.04,10,10,9,17,7,21,0.00,6,,282
2013-12-15,36,25,14,27,19,10,88,79,69,30.02,29.89,29.83,10,9,7,20,9,23,0.00,4,,241
2013-12-16,37,32,26,29,26,19,85,77,69,30.17,30.03,29.85,10,7,0,30,18,37,0.01,7,Fog-Snow,277
2013-12-17,36,24,11,25,17,8,84,74,64,30.25,30.04,29.70,10,10,10,20,12,25,0.00,0,,228
2013-12-18,40,24,8,27,21,4,88,74,59,30.07,29.79,29.65,10,10,6,23,14,28,T,4,Snow,316
2013-12-19,8,-3,-15,2,-5,-18,86,80,74,30.30,30.13,29.95,10,4,0,22,10,24,0.06,6,Snow,25
2013-12-20,11,-1,-13,3,-7,-16,95,81,66,30.17,29.87,29.64,10,8,0,16,7,18,0.00,1,Fog,230
2013-12-21,1,-6,-13,-4,-8,-18,92,82,72,30.17,29.90,29.65,10,3,0,15,8,16,0.01,6,Fog-Snow,83
2013-12-22,-2,-12,-23,-9,-15,-26,81,77,72,30.60,30.28,30.02,10,7,0,17,7,19,T,5,Fog-Snow,302
2013-12-23,12,-8,-29,7,-20,-33,100,84,68,30.63,30.35,29.99,10,5,0,29,15,36,0.00,3,,193
2013-12-24,33,23,12,25,21,8,88,77,66,30.12,29.99,29.78,10,8,1,26,16,35,0.04,6,Snow,273
2013-12-25,30,25,20,23,20,16,84,77,69,30.30,30.15,29.90,10,9,2,26,15,32,T,7,Snow,277
2013-12-26,39,32,25,29,23,19,75,69,63,30.13,30.02,29.89,10,10,3,25,17,30,T,2,Snow,262
2013-12-27,40,37,34,31,29,27,82,73,64,30.02,29.93,29.75,10,10,10,25,14,29,0.00,0,,248
2013-12-28,41,19,-4,30,5,-12,82,73,64,30.59,30.13,29.71,10,6,0,43,20,52,T,6,Snow,321
2013-12-29,21,9,-3,17,4,-12,84,75,65,30.56,30.11,29.77,10,7,2,17,10,20,T,8,Snow,205
2013-12-30,24,15,5,21,9,1,91,82,73,30.25,30.03,29.76,10,5,1,24,12,28,0.01,8,Snow,328
2013-12-31,5,1,-3,1,-6,-9,87,80,72,30.27,30.11,29.97,10,4,1,21,13,24,0.05,8,Snow,103